Time;durP1;ratioP1;P1;durP2;ratioP2;P2;SDS_P1;SDS_P2;PMS_P1;PMS_P2;Temp;Humidity;BMP_temperature;BMP_pressure;BME280_temperature;BME280_humidity;BME280_pressure;Samples;Min_cycle;Max_cycle;Signal;HPM_P1;HPM_P2
2023/12/08 08:21:57;;;;;;;10.47;3.13;;;7.50;99.90;;;;;;2974159;23;20249;-74
2023/12/08 08:24:24;;;;;;;8.93;3.73;;;7.50;99.90;;;;;;4898809;29;20246;-74
2023/12/08 08:26:51;;;;;;;16.67;4.13;;;7.60;99.90;;;;;;4899395;29;20742;-76
2023/12/08 08:29:18;;;;;;;12.53;2.63;;;7.60;99.90;;;;;;4899408;29;20735;-74
2023/12/08 08:31:45;;;;;;;11.83;3.13;;;7.70;99.90;;;;;;4899514;29;20675;-77
2023/12/08 08:34:12;;;;;;;11.00;3.00;;;7.70;99.90;;;;;;4899028;29;20242;-74
2023/12/08 08:36:39;;;;;;;11.90;2.97;;;7.80;99.90;;;;;;4899316;29;20658;-73
2023/12/08 08:39:07;;;;;;;6.83;2.67;;;7.90;99.90;;;;;;4893786;29;20325;-73
2023/12/08 08:41:35;;;;;;;10.83;3.10;;;7.90;99.90;;;;;;4899024;29;20214;-73
2023/12/08 08:44:02;;;;;;;10.03;3.30;;;8.00;99.90;;;;;;4907347;29;20210;-77
2023/12/08 08:46:29;;;;;;;10.73;3.47;;;8.10;99.90;;;;;;4917593;29;20261;-73
2023/12/08 08:48:57;;;;;;;9.57;3.50;;;8.00;99.90;;;;;;4899910;29;20270;-77
2023/12/08 08:51:24;;;;;;;12.37;3.97;;;8.00;99.90;;;;;;4898812;29;20666;-73
2023/12/08 08:53:51;;;;;;;10.07;3.13;;;8.10;99.90;;;;;;4898463;29;20233;-70
2023/12/08 08:56:19;;;;;;;6.20;2.60;;;8.10;99.90;;;;;;4907894;29;20210;-71
2023/12/08 08:58:47;;;;;;;10.90;2.60;;;8.10;99.90;;;;;;4901163;29;20317;-72
2023/12/08 09:01:14;;;;;;;8.60;2.87;;;8.20;99.90;;;;;;4897876;29;20769;-70
2023/12/08 09:03:41;;;;;;;8.00;3.37;;;8.20;99.90;;;;;;4898757;29;20285;-71
2023/12/08 09:06:08;;;;;;;10.07;2.83;;;8.30;99.90;;;;;;4898956;29;20210;-72
2023/12/08 09:08:35;;;;;;;14.30;3.13;;;8.20;99.90;;;;;;4904677;29;20210;-71
2023/12/08 09:11:02;;;;;;;9.77;2.97;;;8.20;99.90;;;;;;4908199;29;20217;-71
2023/12/08 09:13:32;;;;;;;11.47;3.10;;;8.20;99.90;;;;;;4907337;29;20246;-71
2023/12/08 09:15:59;;;;;;;14.83;2.93;;;8.30;99.90;;;;;;4898686;29;20269;-71
2023/12/08 09:18:26;;;;;;;8.47;2.57;;;8.20;99.90;;;;;;4897607;29;20618;-71
2023/12/08 09:20:53;;;;;;;9.57;3.43;;;8.30;99.90;;;;;;4897020;29;20741;-71
2023/12/08 09:23:20;;;;;;;9.93;3.23;;;8.30;99.90;;;;;;4898143;29;20241;-71
2023/12/08 09:25:48;;;;;;;11.60;3.13;;;8.40;99.90;;;;;;4898317;29;20684;-71
2023/12/08 09:28:17;;;;;;;8.20;2.43;;;8.40;99.90;;;;;;4898238;29;20566;-75
2023/12/08 09:30:46;;;;;;;14.57;2.83;;;8.50;99.90;;;;;;4898416;29;20235;-71
2023/12/08 09:33:14;;;;;;;8.37;2.67;;;8.50;99.90;;;;;;4897570;29;20689;-71
2023/12/08 09:35:41;;;;;;;7.80;2.07;;;8.60;99.90;;;;;;4898297;29;20692;-71
2023/12/08 09:38:08;;;;;;;14.43;2.77;;;8.60;99.90;;;;;;4898159;29;20725;-73
2023/12/08 09:40:38;;;;;;;5.57;3.10;;;8.70;99.90;;;;;;4897913;29;20230;-70
2023/12/08 09:43:12;;;;;;;9.50;3.70;;;8.70;99.90;;;;;;4898102;29;20218;-70
2023/12/08 09:45:39;;;;;;;6.43;2.73;;;8.60;99.90;;;;;;4898273;29;20210;-73
2023/12/08 09:48:09;;;;;;;10.17;2.63;;;8.60;99.90;;;;;;4898241;29;20218;-77
2023/12/08 09:50:37;;;;;;;9.53;2.80;;;8.60;99.90;;;;;;4898455;29;20697;-75
2023/12/08 09:53:04;;;;;;;11.33;2.83;;;8.70;99.90;;;;;;4897815;29;20245;-72
2023/12/08 09:55:33;;;;;;;9.80;2.70;;;8.70;99.90;;;;;;4898006;29;20214;-74
2023/12/08 09:58:01;;;;;;;6.00;2.67;;;8.70;99.90;;;;;;4898331;29;20207;-71
2023/12/08 10:00:32;;;;;;;8.00;2.57;;;8.60;99.90;;;;;;4897970;29;20235;-71
2023/12/08 10:03:00;;;;;;;9.50;3.37;;;8.70;99.90;;;;;;4897872;29;20219;-71
2023/12/08 10:05:28;;;;;;;9.63;3.20;;;8.70;99.90;;;;;;4897791;29;20215;-71
2023/12/08 10:07:57;;;;;;;8.57;2.67;;;8.60;99.90;;;;;;4897647;29;20309;-73
2023/12/08 10:10:24;;;;;;;8.70;2.60;;;8.70;99.90;;;;;;4897810;29;20760;-72
2023/12/08 10:12:52;;;;;;;7.00;2.50;;;8.70;99.90;;;;;;4897799;29;20216;-71
2023/12/08 10:15:19;;;;;;;11.10;2.63;;;8.70;99.90;;;;;;4897874;29;20306;-72
2023/12/08 10:17:48;;;;;;;9.67;2.40;;;8.80;99.90;;;;;;4898004;29;20297;-74
2023/12/08 10:20:16;;;;;;;7.60;3.47;;;8.80;99.90;;;;;;4897675;29;20281;-71
2023/12/08 10:22:49;;;;;;;4.17;1.77;;;8.80;99.90;;;;;;4897557;29;20689;-71
2023/12/08 10:25:17;;;;;;;4.97;2.27;;;8.90;99.90;;;;;;4897464;29;20565;-72
2023/12/08 10:27:46;;;;;;;12.17;3.63;;;8.90;99.90;;;;;;4897437;29;20262;-71
2023/12/08 10:30:15;;;;;;;7.67;2.43;;;8.90;99.90;;;;;;4897292;29;20267;-73
2023/12/08 10:32:43;;;;;;;8.17;2.43;;;8.80;99.90;;;;;;4897475;29;20691;-73
2023/12/08 10:35:11;;;;;;;13.77;3.47;;;8.80;99.90;;;;;;4897420;29;20242;-72
2023/12/08 10:37:39;;;;;;;5.90;2.13;;;8.90;99.90;;;;;;4897668;29;20211;-72
2023/12/08 10:40:10;;;;;;;5.77;2.50;;;8.90;99.90;;;;;;4897766;29;20321;-73
2023/12/08 10:42:37;;;;;;;5.90;2.10;;;8.90;99.90;;;;;;4897649;29;20218;-72
2023/12/08 10:45:10;;;;;;;7.07;2.17;;;9.00;99.90;;;;;;4898944;29;20245;-72
2023/12/08 10:47:39;;;;;;;4.63;1.87;;;9.10;99.90;;;;;;4901164;29;20218;-73
2023/12/08 10:50:08;;;;;;;8.33;2.57;;;9.00;99.90;;;;;;4901081;29;20236;-74
2023/12/08 10:52:37;;;;;;;5.23;2.17;;;9.00;99.90;;;;;;4901058;29;20266;-72
2023/12/08 10:55:05;;;;;;;6.23;2.23;;;9.00;99.90;;;;;;4901082;29;20238;-72
2023/12/08 10:57:34;;;;;;;3.63;1.60;;;9.00;99.90;;;;;;4900950;29;20210;-72
2023/12/08 11:00:11;;;;;;;5.57;2.03;;;9.00;99.90;;;;;;4900681;29;20293;-71
2023/12/08 11:02:41;;;;;;;7.53;2.40;;;8.90;99.90;;;;;;4901088;29;20257;-72
2023/12/08 11:05:11;;;;;;;6.93;1.93;;;9.00;99.90;;;;;;4900991;29;20577;-72
2023/12/08 11:07:43;;;;;;;4.60;2.10;;;8.90;99.90;;;;;;4901047;29;20657;-72
2023/12/08 11:10:13;;;;;;;8.97;2.00;;;9.00;99.90;;;;;;4900684;29;20709;-73
2023/12/08 11:12:49;;;;;;;5.80;1.87;;;9.00;99.90;;;;;;4900752;29;20264;-74
2023/12/08 11:15:22;;;;;;;5.13;1.57;;;9.00;99.90;;;;;;4900970;29;20329;-73
2023/12/08 11:17:52;;;;;;;6.43;1.90;;;9.00;99.90;;;;;;4900688;29;20245;-75
2023/12/08 11:20:20;;;;;;;6.60;2.17;;;8.90;99.90;;;;;;4900643;29;20784;-72
2023/12/08 11:22:47;;;;;;;6.03;1.93;;;8.90;99.90;;;;;;4900419;29;20226;-72
2023/12/08 11:25:22;;;;;;;7.80;2.20;;;8.80;99.90;;;;;;4900608;29;20222;-72
2023/12/08 11:27:58;;;;;;;5.40;2.40;;;8.90;99.90;;;;;;4900517;29;20206;-72
2023/12/08 11:30:33;;;;;;;6.17;2.50;;;8.90;99.90;;;;;;4900244;29;20226;-72
2023/12/08 11:33:10;;;;;;;9.00;2.20;;;9.00;99.90;;;;;;4900063;29;20217;-73
2023/12/08 11:35:38;;;;;;;7.77;1.80;;;9.00;99.90;;;;;;4900023;29;20242;-72
2023/12/08 11:38:06;;;;;;;9.23;2.37;;;8.90;99.90;;;;;;4899915;29;20615;-71
2023/12/08 11:40:33;;;;;;;8.07;2.20;;;8.90;99.90;;;;;;4900212;29;20325;-72
2023/12/08 11:43:02;;;;;;;8.80;2.63;;;8.80;99.90;;;;;;4900099;29;20213;-71
2023/12/08 11:45:29;;;;;;;10.03;2.13;;;8.80;99.90;;;;;;4900281;29;20737;-71
2023/12/08 11:47:57;;;;;;;4.97;2.63;;;8.80;99.90;;;;;;4900099;29;20210;-72
2023/12/08 11:50:25;;;;;;;7.43;2.60;;;8.80;99.90;;;;;;4900636;29;20226;-72
2023/12/08 11:52:52;;;;;;;8.53;2.30;;;8.90;99.90;;;;;;4899794;29;20553;-71
2023/12/08 11:55:23;;;;;;;9.70;2.37;;;8.90;99.90;;;;;;4899923;29;20249;-72
2023/12/08 11:58:07;;;;;;;11.57;2.87;;;9.00;99.90;;;;;;4899595;29;20214;-71
2023/12/08 12:00:35;;;;;;;16.50;2.47;;;8.90;99.90;;;;;;4899699;29;20242;-71
2023/12/08 12:03:04;;;;;;;7.00;1.83;;;9.00;99.90;;;;;;4899872;29;20249;-73
2023/12/08 12:05:31;;;;;;;9.10;2.60;;;9.00;99.90;;;;;;4899964;29;20210;-72
2023/12/08 12:07:59;;;;;;;6.73;2.93;;;8.90;99.90;;;;;;4899616;29;20270;-71
2023/12/08 12:10:27;;;;;;;5.37;2.30;;;9.00;99.90;;;;;;4899378;29;20234;-71
2023/12/08 12:12:56;;;;;;;8.03;2.60;;;8.90;99.90;;;;;;4899545;29;20412;-72
2023/12/08 12:15:25;;;;;;;5.50;2.30;;;9.00;99.90;;;;;;4899641;29;20242;-71
2023/12/08 12:17:53;;;;;;;9.43;2.17;;;8.90;99.90;;;;;;4899716;29;20214;-71
2023/12/08 12:20:20;;;;;;;6.90;2.63;;;8.90;99.90;;;;;;4899586;29;20639;-72
2023/12/08 12:22:47;;;;;;;7.23;2.37;;;8.90;99.90;;;;;;4899303;29;20753;-72
2023/12/08 12:25:14;;;;;;;7.80;2.90;;;8.80;99.90;;;;;;4899319;29;20210;-72
2023/12/08 12:27:41;;;;;;;9.20;3.03;;;8.80;99.90;;;;;;4899435;29;20218;-72
2023/12/08 12:30:09;;;;;;;4.53;2.00;;;8.80;99.90;;;;;;4899355;29;20720;-72
2023/12/08 12:32:38;;;;;;;5.50;2.37;;;8.90;99.90;;;;;;4899351;29;20206;-72
2023/12/08 12:35:06;;;;;;;6.47;2.10;;;9.00;99.90;;;;;;4899296;29;20293;-71
2023/12/08 12:37:33;;;;;;;8.43;2.60;;;9.00;99.90;;;;;;4899284;29;20210;-71
2023/12/08 12:40:00;;;;;;;6.70;2.40;;;9.10;99.90;;;;;;4899112;29;20713;-72
2023/12/08 12:42:27;;;;;;;7.73;2.47;;;9.00;99.90;;;;;;4899327;29;20654;-73
2023/12/08 12:44:54;;;;;;;11.73;2.60;;;9.10;99.90;;;;;;4899188;29;20302;-73
2023/12/08 12:47:23;;;;;;;9.37;2.30;;;9.20;99.90;;;;;;4899490;29;20210;-72
2023/12/08 12:50:05;;;;;;;7.23;2.00;;;9.20;99.90;;;;;;4899030;29;20230;-72
2023/12/08 12:52:34;;;;;;;6.57;2.50;;;9.20;99.90;;;;;;4898568;29;20221;-72
2023/12/08 12:55:02;;;;;;;9.67;2.93;;;9.10;99.90;;;;;;4899205;29;20583;-73
2023/12/08 12:57:44;;;;;;;7.70;3.00;;;9.00;99.90;;;;;;4900335;29;20258;-71
2023/12/08 13:00:13;;;;;;;7.97;2.10;;;9.00;99.90;;;;;;4900070;29;20278;-72
2023/12/08 13:02:42;;;;;;;6.17;2.13;;;9.10;99.90;;;;;;4899158;29;20210;-71
2023/12/08 13:05:11;;;;;;;7.90;2.60;;;9.10;99.90;;;;;;4898627;29;20258;-72
2023/12/08 13:07:38;;;;;;;6.23;2.20;;;9.00;99.90;;;;;;4898773;29;20257;-72
2023/12/08 13:10:07;;;;;;;4.40;1.93;;;9.00;99.90;;;;;;4898476;29;20755;-72
2023/12/08 13:12:35;;;;;;;9.23;2.33;;;9.10;99.90;;;;;;4899185;29;20245;-72
2023/12/08 13:15:02;;;;;;;5.57;2.10;;;9.30;99.90;;;;;;4899120;29;20270;-73
2023/12/08 13:17:29;;;;;;;9.47;2.27;;;9.10;99.90;;;;;;4898809;29;20242;-72
2023/12/08 13:19:56;;;;;;;4.67;1.60;;;9.20;99.90;;;;;;4898725;29;20702;-71
2023/12/08 13:22:24;;;;;;;5.03;2.00;;;9.10;99.90;;;;;;4898414;29;20747;-72
2023/12/08 13:24:51;;;;;;;4.60;2.10;;;9.20;99.90;;;;;;4898552;29;20258;-72
2023/12/08 13:27:19;;;;;;;6.23;2.20;;;9.30;99.90;;;;;;4898369;29;20214;-71
2023/12/08 13:29:46;;;;;;;8.80;2.37;;;9.20;99.90;;;;;;4898290;29;20286;-72
2023/12/08 13:32:13;;;;;;;8.00;2.20;;;9.20;99.90;;;;;;4898627;29;20294;-71
2023/12/08 13:34:40;;;;;;;6.57;2.43;;;9.10;99.90;;;;;;4898211;29;20238;-71
2023/12/08 13:37:07;;;;;;;4.97;1.90;;;9.10;99.90;;;;;;4898431;29;20623;-72
2023/12/08 13:39:35;;;;;;;5.10;2.23;;;9.10;99.90;;;;;;4898184;29;20598;-72
2023/12/08 13:42:04;;;;;;;7.90;2.03;;;9.10;99.90;;;;;;4898176;29;20218;-71
2023/12/08 13:44:31;;;;;;;7.97;1.70;;;9.00;99.90;;;;;;4898201;29;20221;-72
2023/12/08 13:46:58;;;;;;;8.53;2.50;;;9.00;99.90;;;;;;4898170;29;20217;-72
2023/12/08 13:49:25;;;;;;;10.37;2.50;;;9.00;99.90;;;;;;4898051;29;20298;-73
2023/12/08 13:51:52;;;;;;;6.60;2.50;;;9.00;99.90;;;;;;4898073;29;20217;-72
2023/12/08 13:54:19;;;;;;;6.73;2.03;;;9.00;99.90;;;;;;4897980;29;20233;-73
2023/12/08 13:56:46;;;;;;;3.17;1.77;;;9.10;99.90;;;;;;4898068;29;20274;-73
2023/12/08 13:59:13;;;;;;;6.67;1.77;;;9.20;99.90;;;;;;4897792;29;20234;-71
2023/12/08 14:01:40;;;;;;;8.40;2.47;;;9.20;99.90;;;;;;4898203;29;20249;-73
2023/12/08 14:04:07;;;;;;;8.40;2.20;;;9.30;99.90;;;;;;4897960;29;20213;-72
2023/12/08 14:06:34;;;;;;;7.17;2.90;;;9.30;99.90;;;;;;4898018;29;21226;-72
2023/12/08 14:09:01;;;;;;;5.63;1.90;;;9.40;99.90;;;;;;4897697;29;20646;-72
2023/12/08 14:11:28;;;;;;;13.97;3.70;;;9.30;99.90;;;;;;4898035;29;20226;-72
2023/12/08 14:13:56;;;;;;;5.90;2.40;;;9.30;99.90;;;;;;4898024;29;20246;-72
2023/12/08 14:16:23;;;;;;;7.57;2.80;;;9.30;99.90;;;;;;4897553;29;20234;-72
2023/12/08 14:18:52;;;;;;;7.83;2.37;;;9.40;99.90;;;;;;4898416;29;20250;-73
2023/12/08 14:21:19;;;;;;;5.83;1.83;;;9.40;99.90;;;;;;4901400;29;20626;-72
2023/12/08 14:23:46;;;;;;;5.17;1.70;;;9.30;99.90;;;;;;4901516;29;20214;-73
2023/12/08 14:26:13;;;;;;;7.63;2.43;;;9.30;99.90;;;;;;4901523;29;20202;-71
2023/12/08 14:28:40;;;;;;;6.03;1.80;;;9.30;99.90;;;;;;4901298;29;20230;-72
2023/12/08 14:31:08;;;;;;;15.10;2.20;;;9.30;99.90;;;;;;4901728;29;20242;-71
2023/12/08 14:33:35;;;;;;;5.97;2.03;;;9.40;99.90;;;;;;4901419;29;20253;-72
2023/12/08 14:36:03;;;;;;;4.47;1.67;;;9.40;99.90;;;;;;4901302;29;20249;-72
2023/12/08 14:38:30;;;;;;;6.07;1.93;;;9.40;99.90;;;;;;4901200;29;20252;-71
2023/12/08 14:40:57;;;;;;;6.27;2.40;;;9.50;99.90;;;;;;4901455;29;20214;-72
2023/12/08 14:43:24;;;;;;;7.57;2.33;;;9.50;99.90;;;;;;4900983;29;20237;-71
2023/12/08 14:45:51;;;;;;;8.87;2.23;;;9.60;99.90;;;;;;4901033;29;20297;-72
2023/12/08 14:48:19;;;;;;;7.00;2.47;;;9.60;99.90;;;;;;4900775;29;20221;-71
2023/12/08 14:50:47;;;;;;;6.93;2.63;;;9.70;99.90;;;;;;4900808;29;20215;-71
2023/12/08 14:53:14;;;;;;;6.53;2.10;;;9.60;99.90;;;;;;4900958;29;20210;-72
2023/12/08 14:55:42;;;;;;;6.27;2.00;;;9.60;99.90;;;;;;4901154;29;20238;-71
2023/12/08 14:58:09;;;;;;;8.80;1.97;;;9.60;99.90;;;;;;4900911;29;20569;-71
2023/12/08 15:00:36;;;;;;;9.60;2.73;;;9.70;99.90;;;;;;4901268;29;20727;-72
2023/12/08 15:03:03;;;;;;;9.10;2.07;;;9.70;99.90;;;;;;4901047;29;20211;-72
2023/12/08 15:05:32;;;;;;;6.97;2.60;;;9.70;99.90;;;;;;4901113;29;20214;-72
2023/12/08 15:07:59;;;;;;;7.63;2.20;;;9.70;99.90;;;;;;4900785;29;20222;-72
2023/12/08 15:10:26;;;;;;;11.20;2.03;;;9.70;99.90;;;;;;4900819;29;20238;-72
2023/12/08 15:12:53;;;;;;;12.23;2.50;;;9.60;99.90;;;;;;4900682;29;20214;-72
2023/12/08 15:15:20;;;;;;;8.73;2.70;;;9.60;99.90;;;;;;4900818;29;20253;-71
2023/12/08 15:17:47;;;;;;;4.90;1.90;;;9.60;99.90;;;;;;4900915;29;20207;-72
2023/12/08 15:20:14;;;;;;;7.30;2.50;;;9.60;99.90;;;;;;4900616;29;20240;-72
2023/12/08 15:22:42;;;;;;;9.73;2.07;;;9.60;99.90;;;;;;4900441;29;20253;-72
2023/12/08 15:25:10;;;;;;;8.23;2.33;;;9.70;99.90;;;;;;4900626;29;20267;-71
2023/12/08 15:27:37;;;;;;;8.70;1.93;;;9.70;99.90;;;;;;4900835;29;20210;-71
2023/12/08 15:30:04;;;;;;;10.67;2.47;;;9.70;99.90;;;;;;4900775;29;20295;-73
2023/12/08 15:32:32;;;;;;;12.97;2.47;;;9.70;99.90;;;;;;4899697;29;20296;-71
2023/12/08 15:34:59;;;;;;;7.87;2.50;;;9.70;99.90;;;;;;4900230;29;20210;-71
2023/12/08 15:37:26;;;;;;;8.17;2.03;;;9.70;99.90;;;;;;4900651;29;20214;-71
2023/12/08 15:39:54;;;;;;;4.67;2.00;;;9.70;99.90;;;;;;4900564;29;20226;-71
2023/12/08 15:42:21;;;;;;;7.30;2.10;;;9.60;99.90;;;;;;4900759;29;20214;-71
2023/12/08 15:44:48;;;;;;;8.67;2.67;;;9.60;99.90;;;;;;4900972;29;20270;-71
2023/12/08 15:47:15;;;;;;;2.40;1.43;;;9.60;99.90;;;;;;4901075;29;20210;-72
2023/12/08 15:49:42;;;;;;;9.83;2.40;;;9.70;99.90;;;;;;4900935;29;20230;-72
2023/12/08 15:52:09;;;;;;;8.20;1.97;;;9.50;99.90;;;;;;4901091;29;20275;-70
2023/12/08 15:54:36;;;;;;;10.40;2.50;;;9.50;99.90;;;;;;4901185;29;20210;-71
2023/12/08 15:57:05;;;;;;;5.23;1.90;;;9.60;99.90;;;;;;4900764;29;20242;-70
2023/12/08 15:59:33;;;;;;;11.53;1.93;;;9.50;99.90;;;;;;4900412;29;20646;-71
2023/12/08 16:02:01;;;;;;;6.87;1.90;;;9.50;99.90;;;;;;4902022;29;20741;-72
2023/12/08 16:04:28;;;;;;;5.17;2.47;;;9.60;99.90;;;;;;4901664;29;20745;-71
2023/12/08 16:06:56;;;;;;;6.40;1.97;;;9.60;99.90;;;;;;4901791;29;20211;-71
2023/12/08 16:09:23;;;;;;;7.53;2.07;;;9.50;99.90;;;;;;4900800;29;20318;-73
2023/12/08 16:11:50;;;;;;;7.50;1.77;;;9.50;99.90;;;;;;4900135;29;20242;-71
2023/12/08 16:14:18;;;;;;;10.83;2.03;;;9.50;99.90;;;;;;4899878;29;20210;-75
2023/12/08 16:16:46;;;;;;;4.90;1.83;;;9.50;99.90;;;;;;4899628;29;20329;-71
2023/12/08 16:19:13;;;;;;;7.63;2.47;;;9.40;99.90;;;;;;4899667;29;20237;-71
2023/12/08 16:21:40;;;;;;;9.37;2.00;;;9.30;99.90;;;;;;4899735;29;20262;-71
2023/12/08 16:24:08;;;;;;;11.03;2.40;;;9.30;99.90;;;;;;4899110;29;20207;-73
2023/12/08 16:26:36;;;;;;;7.37;1.77;;;9.20;99.90;;;;;;4899711;29;20293;-72
2023/12/08 16:29:04;;;;;;;9.83;2.43;;;9.20;99.90;;;;;;4899568;29;20235;-72
2023/12/08 16:31:32;;;;;;;8.20;2.20;;;9.10;99.90;;;;;;4899444;29;20214;-72
2023/12/08 16:34:00;;;;;;;8.73;2.50;;;9.10;99.90;;;;;;4899522;29;20210;-72
2023/12/08 16:36:26;;;;;;;8.60;3.30;;;9.10;99.90;;;;;;4899123;29;20744;-72
2023/12/08 16:38:53;;;;;;;9.10;2.40;;;9.10;99.90;;;;;;4903516;29;20234;-74
2023/12/08 16:41:20;;;;;;;8.53;2.57;;;9.10;99.90;;;;;;4909602;29;20211;-73
2023/12/08 16:43:47;;;;;;;16.00;4.17;;;9.10;99.90;;;;;;4911121;29;20214;-71
2023/12/08 16:46:14;;;;;;;10.63;3.30;;;9.10;99.90;;;;;;4910987;29;20297;-72
2023/12/08 16:48:43;;;;;;;13.23;3.37;;;9.00;99.90;;;;;;4909034;29;20233;-72
2023/12/08 16:51:10;;;;;;;11.50;3.33;;;8.90;99.90;;;;;;4899103;29;20282;-72
2023/12/08 16:53:37;;;;;;;14.37;3.03;;;8.90;99.90;;;;;;4898752;29;20729;-72
2023/12/08 16:56:04;;;;;;;7.00;2.90;;;8.80;99.90;;;;;;4898987;29;20725;-72
2023/12/08 16:58:31;;;;;;;13.57;2.87;;;8.80;99.90;;;;;;4898866;29;20211;-71
2023/12/08 17:00:59;;;;;;;6.10;2.73;;;8.60;99.90;;;;;;4898795;29;20214;-73
2023/12/08 17:03:27;;;;;;;8.23;2.90;;;8.60;99.90;;;;;;4898518;29;20690;-72
2023/12/08 17:05:55;;;;;;;12.37;2.60;;;8.60;99.90;;;;;;4898695;29;20214;-71
2023/12/08 17:08:22;;;;;;;11.67;2.67;;;8.70;99.90;;;;;;4899095;29;20206;-72
2023/12/08 17:10:49;;;;;;;9.10;2.97;;;8.50;99.90;;;;;;4898657;29;20551;-73
2023/12/08 17:13:16;;;;;;;10.40;2.97;;;8.40;99.90;;;;;;4898752;29;20246;-72
2023/12/08 17:15:43;;;;;;;12.50;3.73;;;8.50;99.90;;;;;;4898259;29;20637;-71
2023/12/08 17:18:10;;;;;;;14.63;2.30;;;8.50;99.90;;;;;;4898453;29;20649;-76
2023/12/08 17:20:37;;;;;;;11.00;2.67;;;8.50;99.90;;;;;;4898451;29;20231;-76
2023/12/08 17:23:06;;;;;;;11.90;3.50;;;8.40;99.90;;;;;;4898371;29;20325;-74
2023/12/08 17:25:33;;;;;;;17.37;3.83;;;8.40;99.90;;;;;;4898558;29;20574;-72
2023/12/08 17:28:01;;;;;;;23.80;4.83;;;8.40;99.90;;;;;;4898370;29;20210;-75
2023/12/08 17:30:28;;;;;;;7.90;2.47;;;8.30;99.90;;;;;;4898256;29;20235;-75
2023/12/08 17:32:55;;;;;;;12.47;2.20;;;8.30;99.90;;;;;;4898220;29;20587;-75
2023/12/08 17:35:22;;;;;;;10.10;2.30;;;8.20;99.90;;;;;;4898184;29;20217;-75
2023/12/08 17:37:49;;;;;;;6.77;3.03;;;8.20;99.90;;;;;;4898031;29;20246;-75
2023/12/08 17:40:17;;;;;;;9.57;2.20;;;8.20;99.90;;;;;;4898026;29;20234;-76
2023/12/08 17:42:44;;;;;;;10.53;2.27;;;8.20;99.90;;;;;;4898387;29;20275;-74
2023/12/08 17:45:11;;;;;;;8.63;2.07;;;8.20;99.90;;;;;;4898107;29;20210;-75
2023/12/08 17:47:38;;;;;;;11.33;2.60;;;8.20;99.90;;;;;;4897636;29;20217;-72
2023/12/08 17:50:06;;;;;;;8.83;2.33;;;8.20;99.90;;;;;;4897939;29;20764;-72
2023/12/08 17:52:34;;;;;;;14.97;3.27;;;8.30;99.90;;;;;;4897926;29;20275;-72
2023/12/08 17:55:02;;;;;;;10.00;2.13;;;8.40;99.90;;;;;;4897461;29;20765;-72
2023/12/08 17:57:30;;;;;;;8.50;2.30;;;8.40;99.90;;;;;;4893055;29;20297;-72
2023/12/08 17:59:57;;;;;;;10.13;2.20;;;8.40;99.90;;;;;;4897117;29;20242;-72
2023/12/08 18:02:24;;;;;;;10.43;2.50;;;8.40;99.90;;;;;;4907151;29;20241;-72
2023/12/08 18:04:51;;;;;;;10.17;2.83;;;8.30;99.90;;;;;;4899227;29;20213;-73
2023/12/08 18:07:18;;;;;;;13.30;1.73;;;8.30;99.90;;;;;;4897555;29;20222;-71
2023/12/08 18:09:45;;;;;;;6.27;2.00;;;8.30;99.90;;;;;;4897109;29;20258;-71
2023/12/08 18:12:12;;;;;;;8.97;1.97;;;8.20;99.90;;;;;;4897063;29;20242;-71
2023/12/08 18:14:40;;;;;;;13.97;2.30;;;8.20;99.90;;;;;;4897168;29;20242;-72
2023/12/08 18:17:07;;;;;;;8.97;2.53;;;8.20;99.90;;;;;;4897207;29;20290;-72
2023/12/08 18:19:34;;;;;;;10.00;2.30;;;8.20;99.90;;;;;;4884698;29;20234;-72
2023/12/08 18:22:02;;;;;;;8.27;2.00;;;8.20;99.90;;;;;;4897220;29;20309;-72
2023/12/08 18:24:29;;;;;;;10.90;2.20;;;8.20;99.90;;;;;;4897241;29;20210;-72
2023/12/08 18:26:56;;;;;;;7.30;1.83;;;8.20;99.90;;;;;;4897071;29;20214;-72
2023/12/08 18:29:23;;;;;;;8.57;1.97;;;8.20;99.90;;;;;;4890699;29;20317;-72
2023/12/08 18:31:51;;;;;;;7.63;1.90;;;8.20;99.90;;;;;;4896694;29;20266;-72
2023/12/08 18:34:18;;;;;;;5.40;3.10;;;8.20;99.90;;;;;;4896384;29;20221;-72
2023/12/08 18:36:45;;;;;;;7.13;1.80;;;8.20;99.90;;;;;;4896740;29;20333;-71
2023/12/08 18:39:13;;;;;;;7.63;1.73;;;8.30;99.90;;;;;;4896449;29;20289;-71
2023/12/08 18:41:40;;;;;;;12.80;2.53;;;8.30;99.90;;;;;;4896760;29;20297;-72
2023/12/08 18:44:07;;;;;;;10.70;2.37;;;8.30;99.90;;;;;;4897100;29;20678;-71
2023/12/08 18:46:34;;;;;;;5.57;1.57;;;8.30;99.90;;;;;;4896936;29;20218;-71
2023/12/08 18:49:03;;;;;;;7.57;1.90;;;8.30;99.90;;;;;;4896681;29;20242;-71
2023/12/08 18:51:31;;;;;;;13.53;2.20;;;8.30;99.90;;;;;;4897834;29;20217;-72
2023/12/08 18:53:59;;;;;;;10.63;2.37;;;8.30;99.90;;;;;;4896729;29;20750;-72
2023/12/08 18:56:26;;;;;;;11.93;2.27;;;8.30;99.90;;;;;;4896605;29;20241;-71
2023/12/08 18:58:54;;;;;;;9.77;2.23;;;8.30;99.90;;;;;;4896998;29;20308;-71
2023/12/08 19:01:23;;;;;;;15.13;1.87;;;8.30;99.90;;;;;;4894704;29;20726;-73
2023/12/08 19:03:50;;;;;;;7.37;1.80;;;8.30;99.90;;;;;;4886120;29;20571;-72
2023/12/08 19:06:20;;;;;;;14.93;1.90;;;8.30;99.90;;;;;;4893202;29;20298;-72
2023/12/08 19:08:47;;;;;;;10.77;1.90;;;8.40;99.90;;;;;;4899902;29;20639;-71
2023/12/08 19:11:14;;;;;;;7.83;1.77;;;8.50;99.90;;;;;;4900392;29;20274;-71
2023/12/08 19:13:43;;;;;;;7.07;1.97;;;8.60;99.90;;;;;;4900014;29;20864;-71
2023/12/08 19:16:10;;;;;;;4.07;1.30;;;8.60;99.90;;;;;;4900131;29;20211;-71
2023/12/08 19:18:37;;;;;;;7.90;1.70;;;8.60;99.90;;;;;;4899838;29;20217;-71
2023/12/08 19:21:04;;;;;;;12.43;1.83;;;8.70;99.90;;;;;;4900291;29;20210;-72
2023/12/08 19:23:33;;;;;;;10.00;1.53;;;8.80;99.90;;;;;;4900032;29;20214;-71
2023/12/08 19:26:01;;;;;;;8.60;1.67;;;8.80;99.90;;;;;;4900176;29;20235;-72
2023/12/08 19:28:28;;;;;;;10.23;2.30;;;8.80;99.90;;;;;;4899752;29;20275;-73
2023/12/08 19:30:55;;;;;;;16.27;2.80;;;8.80;99.90;;;;;;4899822;29;20266;-72
2023/12/08 19:33:23;;;;;;;8.00;3.43;;;8.80;99.90;;;;;;4894105;29;20217;-72
2023/12/08 19:35:51;;;;;;;6.90;2.87;;;8.80;99.90;;;;;;4894308;29;20662;-74
2023/12/08 19:38:18;;;;;;;5.93;2.90;;;8.80;99.90;;;;;;4899827;29;20234;-72
2023/12/08 19:40:46;;;;;;;15.93;2.63;;;8.80;99.90;;;;;;4899512;29;20230;-73
2023/12/08 19:43:13;;;;;;;8.30;2.10;;;8.80;99.90;;;;;;4899756;29;20237;-73
2023/12/08 19:45:40;;;;;;;9.37;2.07;;;8.80;99.90;;;;;;4900110;29;20266;-73
2023/12/08 19:48:07;;;;;;;10.23;2.20;;;8.70;99.90;;;;;;4888832;29;20206;-74
2023/12/08 19:50:34;;;;;;;13.93;2.30;;;8.80;99.90;;;;;;4899681;29;20234;-74
2023/12/08 19:53:03;;;;;;;10.00;2.13;;;8.70;99.90;;;;;;4889356;29;20241;-73
2023/12/08 19:55:30;;;;;;;17.37;3.00;;;8.70;99.90;;;;;;4899209;29;20670;-73
2023/12/08 19:57:58;;;;;;;8.57;2.50;;;8.70;99.90;;;;;;4899306;29;20238;-74
2023/12/08 20:00:25;;;;;;;11.30;1.90;;;8.70;99.90;;;;;;4898972;29;20305;-74
2023/12/08 20:02:52;;;;;;;10.40;1.90;;;8.60;99.90;;;;;;4899147;29;20241;-74
2023/12/08 20:05:19;;;;;;;10.90;2.13;;;8.70;99.90;;;;;;4899157;29;20206;-74
2023/12/08 20:07:46;;;;;;;7.23;1.97;;;8.70;99.90;;;;;;4893027;29;20211;-71
2023/12/08 20:10:13;;;;;;;9.00;2.07;;;8.70;99.90;;;;;;4899195;29;20241;-71
2023/12/08 20:12:40;;;;;;;10.30;2.00;;;8.70;99.90;;;;;;4899603;29;20267;-71
2023/12/08 20:15:10;;;;;;;6.73;1.90;;;8.70;99.90;;;;;;4899369;29;20210;-72
2023/12/08 20:17:37;;;;;;;11.83;3.13;;;8.70;99.90;;;;;;4898976;29;20237;-72
2023/12/08 20:20:04;;;;;;;8.30;2.60;;;8.80;99.90;;;;;;4899094;29;20230;-71
2023/12/08 20:22:31;;;;;;;3.93;1.60;;;8.90;99.90;;;;;;4910916;23;20253;-74
2023/12/08 20:24:58;;;;;;;12.07;2.37;;;8.80;99.90;;;;;;4898504;29;20249;-73
2023/12/08 20:27:25;;;;;;;6.27;2.67;;;8.80;99.90;;;;;;4899091;29;20210;-75
2023/12/08 20:29:51;;;;;;;11.43;1.87;;;8.80;99.90;;;;;;4898635;29;20230;-74
2023/12/08 20:32:19;;;;;;;4.77;1.83;;;8.80;99.90;;;;;;4899085;29;20693;-76
2023/12/08 20:34:47;;;;;;;4.50;1.63;;;8.80;99.90;;;;;;4898849;29;20210;-74
2023/12/08 20:37:13;;;;;;;5.57;2.00;;;8.80;99.90;;;;;;4898443;29;20252;-77
2023/12/08 20:39:42;;;;;;;14.50;1.80;;;8.70;99.90;;;;;;4897204;29;20318;-74
2023/12/08 20:42:09;;;;;;;5.93;2.10;;;8.70;99.90;;;;;;4891458;29;20270;-74
2023/12/08 20:44:36;;;;;;;9.73;2.73;;;8.80;99.90;;;;;;4898047;29;20241;-76
2023/12/08 20:47:03;;;;;;;9.27;1.90;;;8.70;99.90;;;;;;4898133;29;20293;-74
2023/12/08 20:49:31;;;;;;;12.27;2.17;;;8.70;99.90;;;;;;4897920;29;20262;-73
2023/12/08 20:51:58;;;;;;;8.73;1.37;;;8.70;99.90;;;;;;4898116;29;20253;-74
2023/12/08 20:54:25;;;;;;;8.23;1.80;;;8.70;99.90;;;;;;4897964;29;20238;-75
2023/12/08 20:56:52;;;;;;;4.53;1.87;;;8.60;99.90;;;;;;4898147;29;20293;-72
2023/12/08 20:59:19;;;;;;;6.67;2.23;;;8.60;99.90;;;;;;4897958;29;20241;-72
2023/12/08 21:01:46;;;;;;;4.63;1.43;;;8.70;99.90;;;;;;4897760;29;20305;-72
2023/12/08 21:04:13;;;;;;;8.60;2.07;;;8.60;99.90;;;;;;4897965;29;20245;-74
2023/12/08 21:06:41;;;;;;;11.97;1.97;;;8.60;99.90;;;;;;4897854;29;20254;-72
2023/12/08 21:09:13;;;;;;;8.23;1.80;;;8.60;99.90;;;;;;4897915;29;20261;-72
2023/12/08 21:11:40;;;;;;;6.60;1.83;;;8.60;99.90;;;;;;4898000;29;20207;-74
2023/12/08 21:14:07;;;;;;;8.70;2.17;;;8.60;99.90;;;;;;4895462;29;20233;-72
2023/12/08 21:16:34;;;;;;;5.57;1.87;;;8.60;99.90;;;;;;4888971;29;20215;-73